createdAt,value
2017-08-06T00:01:57.069Z,15.40
2017-08-06T00:04:25.330Z,15.20
2017-08-06T00:06:53.697Z,15.30
2017-08-06T00:09:21.447Z,15.20
2017-08-06T00:11:48.970Z,15.30
2017-08-06T00:14:17.232Z,15.40
2017-08-06T00:16:44.766Z,15.40
2017-08-06T00:19:13.006Z,15.50
2017-08-06T00:21:40.573Z,15.50
2017-08-06T00:24:08.850Z,15.40
2017-08-06T00:26:36.338Z,15.40
2017-08-06T00:29:03.819Z,15.30
2017-08-06T00:31:31.375Z,15.30
2017-08-06T00:33:59.116Z,15.20
2017-08-06T00:36:27.375Z,15.00
2017-08-06T00:38:55.633Z,14.80
2017-08-06T00:41:26.963Z,14.70
2017-08-06T00:43:55.203Z,14.70
2017-08-06T00:46:22.778Z,14.70
2017-08-06T00:48:50.514Z,14.70
2017-08-06T00:51:18.762Z,14.60
2017-08-06T00:53:46.238Z,14.60
2017-08-06T00:56:13.727Z,14.60
2017-08-06T00:58:41.203Z,14.50
2017-08-06T01:01:09.462Z,14.40
2017-08-06T01:03:37.826Z,14.40
2017-08-06T01:06:06.087Z,14.30
2017-08-06T01:08:34.327Z,14.30
2017-08-06T01:11:01.899Z,14.30
2017-08-06T01:13:29.422Z,14.30
2017-08-06T01:15:57.686Z,14.10
2017-08-06T01:18:26.151Z,14.10
2017-08-06T01:20:54.415Z,14.00
2017-08-06T01:23:21.967Z,14.00
2017-08-06T01:25:49.502Z,14.00
2017-08-06T01:28:17.758Z,13.90
2017-08-06T01:30:46.042Z,13.90
2017-08-06T01:33:13.570Z,13.90
2017-08-06T01:35:41.070Z,13.80
2017-08-06T01:38:08.542Z,13.80
2017-08-06T01:40:36.781Z,13.70
2017-08-06T01:43:04.350Z,13.70
2017-08-06T01:45:32.619Z,13.60
2017-08-06T01:48:00.155Z,13.60
2017-08-06T01:50:28.515Z,13.60
2017-08-06T01:52:56.758Z,13.60
2017-08-06T01:55:25.047Z,13.50
2017-08-06T01:57:52.542Z,13.50
2017-08-06T02:00:20.486Z,13.40
2017-08-06T02:02:48.098Z,13.40
2017-08-06T02:05:15.623Z,13.30
2017-08-06T02:07:43.881Z,13.40
2017-08-06T02:10:12.243Z,13.30
2017-08-06T02:12:39.722Z,13.30
2017-08-06T02:15:07.957Z,13.20
2017-08-06T02:17:35.522Z,13.20
2017-08-06T02:20:03.761Z,13.20
2017-08-06T02:22:31.326Z,13.20
2017-08-06T02:24:59.690Z,13.10
2017-08-06T02:27:27.927Z,13.10
2017-08-06T02:29:55.495Z,13.10
2017-08-06T02:32:23.766Z,13.00
2017-08-06T02:34:52.002Z,13.00
2017-08-06T02:37:20.293Z,12.90
2017-08-06T02:39:47.823Z,12.90
2017-08-06T02:42:15.365Z,12.90
2017-08-06T02:44:43.623Z,12.90
2017-08-06T02:47:12.086Z,12.80
2017-08-06T02:49:40.359Z,12.70
2017-08-06T02:52:07.887Z,12.70
2017-08-06T02:54:35.434Z,12.80
2017-08-06T02:57:03.762Z,12.70
2017-08-06T02:59:31.340Z,12.70
2017-08-06T03:01:59.602Z,12.70
2017-08-06T03:04:28.165Z,12.70
2017-08-06T03:06:56.408Z,12.70
2017-08-06T03:09:23.971Z,12.60
2017-08-06T03:11:51.549Z,12.70
2017-08-06T03:14:19.793Z,12.60
2017-08-06T03:16:47.359Z,12.60
2017-08-06T03:19:15.714Z,12.60
2017-08-06T03:21:44.181Z,12.50
2017-08-06T03:24:12.418Z,12.50
2017-08-06T03:26:39.889Z,12.50
2017-08-06T03:29:07.426Z,12.50
2017-08-06T03:31:35.687Z,12.50
2017-08-06T03:34:03.942Z,12.40
2017-08-06T03:36:32.319Z,12.40
2017-08-06T03:38:59.850Z,12.40
2017-08-06T03:41:28.110Z,12.40
2017-08-06T03:43:55.858Z,12.40
2017-08-06T03:46:23.347Z,12.40
2017-08-06T03:48:50.822Z,12.40
2017-08-06T03:51:18.394Z,12.40
2017-08-06T03:53:45.867Z,12.40
2017-08-06T03:56:13.343Z,12.40
2017-08-06T03:58:40.831Z,12.30
2017-08-06T04:01:08.362Z,12.30
2017-08-06T04:03:36.926Z,12.30
2017-08-06T04:06:05.190Z,12.20
2017-08-06T04:08:32.732Z,12.20
2017-08-06T04:11:00.998Z,12.20
2017-08-06T04:13:28.479Z,12.20
2017-08-06T04:15:55.958Z,12.20
2017-08-06T04:18:23.458Z,12.20
2017-08-06T04:20:51.127Z,12.20
2017-08-06T04:23:18.732Z,12.20
2017-08-06T04:25:46.207Z,12.20
2017-08-06T04:28:14.693Z,12.20
2017-08-06T04:30:42.230Z,12.20
2017-08-06T04:33:10.474Z,12.20
2017-08-06T04:35:38.041Z,12.20
2017-08-06T04:38:06.302Z,12.20
2017-08-06T04:40:34.570Z,12.30
2017-08-06T04:43:02.310Z,12.30
2017-08-06T04:45:30.588Z,12.30
2017-08-06T04:47:58.118Z,12.30
2017-08-06T04:50:25.658Z,12.30
2017-08-06T04:52:53.922Z,12.40
2017-08-06T04:55:21.400Z,12.30
2017-08-06T04:57:49.006Z,12.40
2017-08-06T05:00:17.370Z,12.40
2017-08-06T05:02:45.630Z,12.50
2017-08-06T05:05:14.094Z,12.60
2017-08-06T05:07:42.354Z,12.50
2017-08-06T05:10:10.598Z,12.60
2017-08-06T05:12:38.962Z,12.60
2017-08-06T05:15:07.206Z,12.60
2017-08-06T05:17:35.482Z,12.60
2017-08-06T05:20:03.946Z,12.60
2017-08-06T05:22:32.190Z,12.60
2017-08-06T05:24:59.750Z,12.60
2017-08-06T05:27:28.218Z,12.70
2017-08-06T05:29:55.696Z,12.70
2017-08-06T05:32:23.176Z,12.70
2017-08-06T05:34:50.686Z,12.70
2017-08-06T05:37:18.185Z,12.60
2017-08-06T05:39:45.678Z,12.70
2017-08-06T05:42:13.375Z,12.80
2017-08-06T05:44:41.616Z,12.80
2017-08-06T05:47:09.082Z,12.80
2017-08-06T05:49:36.682Z,12.90
2017-08-06T05:52:04.154Z,12.90
2017-08-06T05:54:32.390Z,13.10
2017-08-06T05:56:59.963Z,13.10
2017-08-06T05:59:28.354Z,13.20
2017-08-06T06:01:55.846Z,13.20
2017-08-06T06:04:23.329Z,13.20
2017-08-06T06:06:51.606Z,13.30
2017-08-06T06:09:19.122Z,13.30
2017-08-06T06:11:47.362Z,13.40
2017-08-06T06:14:14.930Z,13.40
2017-08-06T06:16:43.166Z,13.50
2017-08-06T06:19:10.641Z,13.50
2017-08-06T06:21:38.130Z,13.50
2017-08-06T06:24:05.720Z,13.50
2017-08-06T06:26:33.958Z,13.70
2017-08-06T06:29:01.434Z,13.70
2017-08-06T06:31:28.966Z,13.80
2017-08-06T06:33:57.431Z,13.90
2017-08-06T06:36:25.669Z,14.00
2017-08-06T06:38:53.927Z,14.10
2017-08-06T06:41:22.320Z,14.20
2017-08-06T06:43:49.857Z,14.20
2017-08-06T06:46:18.094Z,14.30
2017-08-06T06:48:45.867Z,14.30
2017-08-06T06:51:14.106Z,14.50
2017-08-06T06:53:41.676Z,14.60
2017-08-06T06:56:09.518Z,14.60
2017-08-06T06:58:37.755Z,14.80
2017-08-06T07:01:05.227Z,14.80
2017-08-06T07:03:32.766Z,14.90
2017-08-06T07:06:01.027Z,15.00
2017-08-06T07:08:29.265Z,15.10
2017-08-06T07:10:56.831Z,15.10
2017-08-06T07:13:24.524Z,15.10
2017-08-06T07:15:52.791Z,15.30
2017-08-06T07:18:20.326Z,15.20
2017-08-06T07:20:48.078Z,15.40
2017-08-06T07:23:16.338Z,15.50
2017-08-06T07:25:44.566Z,15.60
2017-08-06T07:28:12.051Z,15.50
2017-08-06T07:30:39.513Z,15.60
2017-08-06T07:33:07.003Z,15.70
2017-08-06T07:35:34.558Z,15.80
2017-08-06T07:38:02.791Z,15.90
2017-08-06T07:40:30.258Z,15.90
2017-08-06T07:42:58.732Z,16.10
2017-08-06T07:45:26.974Z,16.20
2017-08-06T07:47:54.679Z,16.10
2017-08-06T07:50:22.383Z,16.20
2017-08-06T07:52:50.622Z,16.40
2017-08-06T07:55:18.114Z,16.40
2017-08-06T07:57:45.784Z,16.50
2017-08-06T08:00:13.253Z,16.60
2017-08-06T08:02:40.806Z,16.70
2017-08-06T08:05:09.187Z,16.80
2017-08-06T08:07:37.442Z,16.80
2017-08-06T08:10:05.682Z,16.90
2017-08-06T08:12:33.207Z,16.90
2017-08-06T08:15:01.439Z,17.00
2017-08-06T08:17:29.012Z,17.00
2017-08-06T08:19:57.366Z,17.10
2017-08-06T08:22:25.611Z,17.10
2017-08-06T08:24:53.086Z,17.20
2017-08-06T08:27:20.618Z,17.30
2017-08-06T08:29:49.075Z,17.40
2017-08-06T08:32:17.307Z,17.40
2017-08-06T08:34:44.778Z,17.40
2017-08-06T08:37:13.058Z,17.70
2017-08-06T08:39:40.523Z,17.70
2017-08-06T08:42:08.021Z,17.80
2017-08-06T08:44:36.394Z,17.90
2017-08-06T08:47:03.866Z,17.90
2017-08-06T08:49:31.353Z,18.00
2017-08-06T08:51:58.910Z,18.20
2017-08-06T08:54:27.154Z,18.30
2017-08-06T08:56:54.627Z,18.30
2017-08-06T08:59:22.121Z,18.40
2017-08-06T09:01:49.586Z,18.40
2017-08-06T09:04:17.147Z,18.50
2017-08-06T09:06:45.379Z,19.00
2017-08-06T09:09:12.951Z,19.00
2017-08-06T09:11:41.211Z,19.10
2017-08-06T09:14:08.773Z,19.00
2017-08-06T09:16:36.289Z,19.00
2017-08-06T09:19:04.522Z,19.30
2017-08-06T09:21:32.018Z,19.30
2017-08-06T09:23:59.534Z,19.40
2017-08-06T09:26:27.770Z,19.10
2017-08-06T09:28:55.451Z,19.10
2017-08-06T09:31:23.012Z,19.10
2017-08-06T09:33:50.498Z,19.10
2017-08-06T09:36:17.982Z,19.20
2017-08-06T09:38:45.522Z,19.00
2017-08-06T09:41:12.985Z,18.90
2017-08-06T09:43:40.502Z,18.90
2017-08-06T09:46:07.974Z,19.10
2017-08-06T09:48:35.449Z,19.20
2017-08-06T09:51:02.969Z,19.40
2017-08-06T09:53:30.427Z,19.70
2017-08-06T09:55:58.840Z,20.00
2017-08-06T09:58:26.338Z,20.00
2017-08-06T10:00:53.921Z,19.90
2017-08-06T10:03:22.164Z,20.40
2017-08-06T10:05:49.728Z,20.40
2017-08-06T10:08:17.983Z,20.80
2017-08-06T10:10:46.210Z,20.80
2017-08-06T10:13:13.680Z,20.80
2017-08-06T10:15:41.254Z,20.90
2017-08-06T10:18:09.513Z,20.70
2017-08-06T10:20:37.778Z,20.50
2017-08-06T10:23:06.215Z,20.40
2017-08-06T10:25:33.683Z,20.30
2017-08-06T10:28:01.942Z,20.10
2017-08-06T10:30:29.486Z,20.10
2017-08-06T10:32:57.756Z,20.20
2017-08-06T10:35:25.233Z,20.20
2017-08-06T10:37:52.734Z,20.20
2017-08-06T10:40:20.989Z,20.60
2017-08-06T10:42:49.255Z,20.70
2017-08-06T10:45:17.477Z,21.10
2017-08-06T10:47:44.982Z,21.00
2017-08-06T10:50:12.443Z,21.20
2017-08-06T10:52:39.898Z,21.30
2017-08-06T10:55:07.578Z,21.60
2017-08-06T10:57:35.806Z,21.30
2017-08-06T11:00:03.274Z,21.30
2017-08-06T11:02:31.746Z,20.60
2017-08-06T11:04:59.970Z,20.40
2017-08-06T11:07:27.463Z,20.40
2017-08-06T11:09:55.000Z,20.30
2017-08-06T11:12:22.578Z,20.50
2017-08-06T11:14:50.310Z,20.60
2017-08-06T11:17:18.580Z,21.10
2017-08-06T11:19:46.114Z,21.10
2017-08-06T11:22:14.686Z,21.40
2017-08-06T11:24:42.918Z,21.50
2017-08-06T11:27:10.486Z,21.50
2017-08-06T11:29:38.738Z,22.20
2017-08-06T11:32:06.998Z,22.90
2017-08-06T11:34:35.230Z,23.50
2017-08-06T11:37:02.910Z,23.50
2017-08-06T11:39:31.134Z,24.90
2017-08-06T11:41:58.624Z,24.90
2017-08-06T11:44:26.102Z,25.50
2017-08-06T11:46:53.601Z,26.10
2017-08-06T11:49:21.966Z,26.40
2017-08-06T11:51:49.510Z,26.30
2017-08-06T11:54:16.982Z,26.00
2017-08-06T11:56:44.446Z,26.70
2017-08-06T11:59:12.134Z,27.00
2017-08-06T12:01:40.367Z,28.50
2017-08-06T12:04:07.930Z,28.50
2017-08-06T12:06:36.243Z,27.70
2017-08-06T12:09:03.697Z,27.60
2017-08-06T12:11:31.270Z,26.20
2017-08-06T12:13:59.503Z,25.30
2017-08-06T12:16:27.076Z,25.20
2017-08-06T12:18:55.538Z,25.90
2017-08-06T12:21:23.786Z,26.60
2017-08-06T12:23:51.248Z,26.60
2017-08-06T12:26:19.539Z,28.70
2017-08-06T12:28:47.050Z,28.70
2017-08-06T12:31:15.410Z,28.80
2017-08-06T12:33:43.981Z,29.60
2017-08-06T12:36:12.237Z,31.00
2017-08-06T12:38:40.473Z,30.10
2017-08-06T12:41:07.971Z,30.00
2017-08-06T12:43:35.482Z,29.10
2017-08-06T12:46:03.714Z,28.30
2017-08-06T12:48:31.382Z,28.30
2017-08-06T12:50:59.613Z,29.40
2017-08-06T12:53:27.091Z,29.30
2017-08-06T12:55:55.493Z,31.80
2017-08-06T12:58:23.146Z,31.80
2017-08-06T13:00:50.618Z,32.30
2017-08-06T13:03:18.406Z,31.50
2017-08-06T13:05:45.938Z,30.00
2017-08-06T13:08:14.171Z,28.80
2017-08-06T13:10:41.818Z,28.80
2017-08-06T13:13:09.285Z,28.70
2017-08-06T13:15:36.777Z,28.00
2017-08-06T13:18:04.814Z,28.80
2017-08-06T13:20:33.047Z,30.60
2017-08-06T13:23:00.523Z,30.60
2017-08-06T13:25:29.002Z,31.20
2017-08-06T13:27:56.546Z,31.20
2017-08-06T13:30:24.178Z,30.40
2017-08-06T13:32:51.763Z,31.40
2017-08-06T13:35:19.294Z,32.20
2017-08-06T13:37:46.810Z,32.60
2017-08-06T13:40:15.175Z,34.00
2017-08-06T13:42:43.398Z,34.10
2017-08-06T13:45:10.867Z,34.10
2017-08-06T13:47:39.330Z,33.70
2017-08-06T13:50:07.597Z,32.90
2017-08-06T13:52:35.859Z,31.60
2017-08-06T13:55:04.324Z,31.40
2017-08-06T13:57:32.551Z,30.80
2017-08-06T14:00:00.123Z,30.80
2017-08-06T14:02:28.525Z,32.10
2017-08-06T14:04:55.998Z,32.10
2017-08-06T14:07:23.475Z,34.20
2017-08-06T14:09:51.742Z,33.00
2017-08-06T14:12:19.250Z,33.00
2017-08-06T14:14:46.886Z,33.10
2017-08-06T14:17:15.134Z,35.20
2017-08-06T14:19:42.689Z,35.10
2017-08-06T14:22:10.922Z,34.00
2017-08-06T14:24:38.382Z,34.10
2017-08-06T14:27:06.860Z,33.20
2017-08-06T14:29:35.122Z,33.20
2017-08-06T14:32:03.341Z,34.10
2017-08-06T14:34:30.914Z,34.10
2017-08-06T14:36:59.142Z,32.90
2017-08-06T14:39:26.830Z,32.80
2017-08-06T14:41:55.077Z,32.90
2017-08-06T14:44:23.446Z,33.10
2017-08-06T14:46:51.805Z,33.80
2017-08-06T14:49:20.086Z,34.10
2017-08-06T14:51:47.618Z,34.10
2017-08-06T14:54:15.979Z,33.80
2017-08-06T14:56:44.337Z,34.00
2017-08-06T14:59:12.571Z,33.20
2017-08-06T15:01:40.246Z,33.20
2017-08-06T15:04:08.470Z,32.70
2017-08-06T15:06:35.935Z,32.60
2017-08-06T15:09:03.491Z,32.40
2017-08-06T15:11:30.954Z,32.60
2017-08-06T15:13:59.230Z,33.60
2017-08-06T15:16:27.491Z,34.00
2017-08-06T15:18:55.747Z,34.30
2017-08-06T15:21:24.206Z,34.90
2017-08-06T15:23:52.466Z,35.90
2017-08-06T15:26:20.699Z,35.30
2017-08-06T15:28:48.270Z,35.30
2017-08-06T15:31:16.534Z,35.70
2017-08-06T15:33:44.790Z,35.70
2017-08-06T15:36:13.155Z,35.80
2017-08-06T15:38:41.414Z,35.20
2017-08-06T15:41:09.648Z,36.20
2017-08-06T15:43:37.417Z,36.10
2017-08-06T15:46:05.683Z,34.80
2017-08-06T15:48:33.948Z,33.00
2017-08-06T15:51:02.322Z,31.50
2017-08-06T15:53:29.856Z,31.50
2017-08-06T15:55:58.083Z,30.50
2017-08-06T15:58:25.658Z,30.50
2017-08-06T16:00:53.904Z,30.30
2017-08-06T16:03:22.139Z,31.60
2017-08-06T16:05:49.625Z,31.60
2017-08-06T16:08:17.163Z,33.10
2017-08-06T16:10:45.414Z,35.60
2017-08-06T16:13:13.143Z,35.60
2017-08-06T16:15:40.706Z,36.90
2017-08-06T16:18:08.166Z,37.60
2017-08-06T16:20:35.671Z,38.40
2017-08-06T16:23:03.210Z,39.00
2017-08-06T16:25:30.679Z,39.00
2017-08-06T16:27:58.198Z,39.40
2017-08-06T16:30:25.741Z,38.90
2017-08-06T16:32:53.982Z,37.00
2017-08-06T16:35:21.473Z,37.00
2017-08-06T16:37:48.933Z,36.80
2017-08-06T16:40:16.429Z,37.30
2017-08-06T16:42:44.706Z,36.50
2017-08-06T16:45:12.173Z,36.40
2017-08-06T16:47:39.670Z,36.20
2017-08-06T16:50:08.130Z,35.20
2017-08-06T16:52:36.398Z,35.40
2017-08-06T16:55:04.626Z,35.70
2017-08-06T16:57:32.126Z,35.60
2017-08-06T16:59:59.650Z,35.70
2017-08-06T17:02:27.198Z,36.20
2017-08-06T17:04:54.941Z,36.00
2017-08-06T17:07:22.418Z,36.20
2017-08-06T17:09:49.915Z,36.50
2017-08-06T17:12:17.398Z,36.60
2017-08-06T17:14:44.865Z,35.60
2017-08-06T17:17:12.470Z,34.70
2017-08-06T17:19:40.742Z,35.00
2017-08-06T17:22:08.273Z,35.00
2017-08-06T17:24:36.634Z,34.40
2017-08-06T17:27:04.858Z,33.60
2017-08-06T17:29:32.327Z,33.50
2017-08-06T17:32:00.706Z,33.00
2017-08-06T17:34:28.962Z,32.90
2017-08-06T17:36:57.246Z,33.00
2017-08-06T17:39:24.966Z,32.90
2017-08-06T17:41:53.199Z,33.00
2017-08-06T17:44:20.662Z,32.90
2017-08-06T17:46:49.034Z,32.40
2017-08-06T17:49:17.294Z,32.30
2017-08-06T17:51:45.555Z,32.20
2017-08-06T17:54:13.832Z,31.80
2017-08-06T17:56:41.291Z,31.80
2017-08-06T17:59:08.754Z,31.30
2017-08-06T18:01:36.234Z,30.90
2017-08-06T18:04:04.602Z,30.00
2017-08-06T18:06:32.835Z,29.40
2017-08-06T18:09:00.298Z,29.40
2017-08-06T18:11:28.035Z,29.00
2017-08-06T18:13:56.392Z,28.20
2017-08-06T18:16:24.762Z,27.70
2017-08-06T18:18:53.126Z,27.40
2017-08-06T18:21:21.355Z,27.10
2017-08-06T18:23:48.822Z,27.00
2017-08-06T18:26:17.058Z,26.60
2017-08-06T18:28:44.518Z,26.60
2017-08-06T18:31:12.985Z,26.10
2017-08-06T18:33:41.223Z,25.80
2017-08-06T18:36:08.705Z,25.80
2017-08-06T18:38:36.210Z,25.60
2017-08-06T18:41:03.678Z,25.40
2017-08-06T18:43:31.939Z,25.10
2017-08-06T18:46:00.402Z,24.90
2017-08-06T18:48:28.667Z,24.70
2017-08-06T18:50:56.181Z,24.70
2017-08-06T18:53:23.794Z,24.50
2017-08-06T18:55:51.294Z,24.30
2017-08-06T18:58:19.555Z,23.90
2017-08-06T19:00:47.818Z,23.80
2017-08-06T19:03:15.286Z,23.80
2017-08-06T19:05:42.778Z,23.60
2017-08-06T19:08:10.339Z,23.50
2017-08-06T19:10:38.594Z,23.20
2017-08-06T19:13:06.195Z,23.20
2017-08-06T19:15:34.434Z,22.90
2017-08-06T19:18:01.902Z,22.90
2017-08-06T19:20:30.342Z,22.70
2017-08-06T19:22:57.901Z,22.70
2017-08-06T19:25:26.187Z,22.50
2017-08-06T19:27:53.911Z,22.40
2017-08-06T19:30:22.142Z,22.20
2017-08-06T19:32:49.602Z,22.20
2017-08-06T19:35:17.974Z,22.00
2017-08-06T19:37:46.205Z,21.90
2017-08-06T19:40:13.691Z,21.90
2017-08-06T19:42:41.174Z,21.80
2017-08-06T19:45:08.638Z,21.70
2017-08-06T19:47:37.126Z,21.60
2017-08-06T19:50:05.402Z,21.50
2017-08-06T19:52:32.930Z,21.50
2017-08-06T19:55:01.294Z,21.40
2017-08-06T19:57:29.518Z,21.20
2017-08-06T19:59:56.990Z,21.20
2017-08-06T20:02:25.458Z,21.10
2017-08-06T20:04:53.682Z,20.90
2017-08-06T20:07:21.161Z,20.90
2017-08-06T20:09:49.512Z,20.80
2017-08-06T20:12:17.778Z,20.70
2017-08-06T20:14:46.042Z,20.60
2017-08-06T20:17:14.434Z,20.50
2017-08-06T20:19:41.897Z,20.50
2017-08-06T20:22:09.354Z,20.40
2017-08-06T20:24:36.854Z,20.30
2017-08-06T20:27:04.323Z,20.30
2017-08-06T20:29:31.783Z,20.20
2017-08-06T20:31:59.342Z,20.10
2017-08-06T20:34:27.621Z,19.90
2017-08-06T20:36:56.019Z,19.90
2017-08-06T20:39:23.523Z,19.90
2017-08-06T20:41:51.754Z,19.80
2017-08-06T20:44:19.259Z,19.80
2017-08-06T20:46:46.762Z,19.70
2017-08-06T20:49:15.021Z,19.70
2017-08-06T20:51:43.300Z,19.60
2017-08-06T20:54:10.767Z,19.60
2017-08-06T20:56:38.225Z,19.60
2017-08-06T20:59:05.710Z,19.50
2017-08-06T21:01:33.969Z,19.50
2017-08-06T21:04:02.235Z,19.40
2017-08-06T21:06:30.659Z,19.40
2017-08-06T21:08:58.122Z,19.30
2017-08-06T21:11:25.613Z,19.30
2017-08-06T21:13:53.142Z,19.20
2017-08-06T21:16:21.411Z,19.10
2017-08-06T21:18:48.946Z,19.00
2017-08-06T21:21:17.302Z,18.90
2017-08-06T21:23:45.575Z,18.90
2017-08-06T21:26:13.043Z,18.90
2017-08-06T21:28:40.678Z,18.80
2017-08-06T21:31:08.139Z,18.80
2017-08-06T21:33:35.659Z,18.70
2017-08-06T21:36:03.297Z,18.60
2017-08-06T21:38:30.834Z,18.60
2017-08-06T21:40:58.390Z,18.50
2017-08-06T21:43:26.120Z,18.50
2017-08-06T21:45:54.351Z,18.50
2017-08-06T21:48:21.822Z,18.50
2017-08-06T21:50:50.082Z,18.30
2017-08-06T21:53:18.347Z,18.30
2017-08-06T21:55:46.802Z,18.30
2017-08-06T21:58:15.039Z,18.20
2017-08-06T22:00:42.606Z,18.20
2017-08-06T22:03:10.983Z,18.20
2017-08-06T22:05:38.518Z,18.10
2017-08-06T22:08:06.752Z,18.10
2017-08-06T22:10:34.423Z,18.10
2017-08-06T22:13:01.899Z,18.00
2017-08-06T22:15:29.471Z,18.00
2017-08-06T22:17:57.215Z,17.90
2017-08-06T22:20:24.757Z,17.90
2017-08-06T22:22:52.224Z,17.80
2017-08-06T22:25:20.007Z,17.80
2017-08-06T22:27:47.482Z,17.70
2017-08-06T22:30:15.742Z,17.60
2017-08-06T22:32:44.005Z,17.60
2017-08-06T22:35:12.252Z,17.50
2017-08-06T22:37:40.527Z,17.50
2017-08-06T22:40:08.986Z,17.40
2017-08-06T22:42:37.220Z,17.40
2017-08-06T22:45:04.687Z,17.40
2017-08-06T22:47:32.961Z,17.30
2017-08-06T22:50:00.502Z,17.30
2017-08-06T22:52:28.046Z,17.30
2017-08-06T22:54:55.685Z,17.30
2017-08-06T22:57:24.144Z,17.20
2017-08-06T22:59:52.379Z,17.20
2017-08-06T23:02:19.858Z,17.20
2017-08-06T23:04:48.314Z,17.10
2017-08-06T23:07:16.552Z,17.00
2017-08-06T23:09:44.118Z,17.00
2017-08-06T23:12:11.803Z,16.90
2017-08-06T23:14:39.278Z,16.80
2017-08-06T23:17:06.744Z,16.80
2017-08-06T23:19:34.226Z,16.70
2017-08-06T23:22:02.513Z,16.50
2017-08-06T23:24:29.995Z,16.50
2017-08-06T23:26:57.579Z,16.50
2017-08-06T23:29:25.079Z,16.50
2017-08-06T23:31:52.558Z,16.50
2017-08-06T23:34:20.798Z,16.40
2017-08-06T23:36:48.285Z,16.30
2017-08-06T23:39:15.750Z,16.30
2017-08-06T23:41:43.346Z,16.30
2017-08-06T23:44:11.578Z,16.30
2017-08-06T23:46:39.142Z,16.20
2017-08-06T23:49:07.408Z,16.20
2017-08-06T23:51:35.639Z,16.20
2017-08-06T23:54:03.156Z,16.10
2017-08-06T23:56:30.656Z,16.10
2017-08-06T23:58:58.922Z,16.00
